createdAt,value
2023-03-21T00:00:23.893Z,9.06
2023-03-21T00:02:50.706Z,9.04
2023-03-21T00:05:17.205Z,9.08
2023-03-21T00:07:43.718Z,9.13
2023-03-21T00:10:16.694Z,9.17
2023-03-21T00:12:44.860Z,9.19
2023-03-21T00:15:12.838Z,9.13
2023-03-21T00:17:39.727Z,9.14
2023-03-21T00:20:15.381Z,9.13
2023-03-21T00:22:42.305Z,9.05
2023-03-21T00:25:10.512Z,9.02
2023-03-21T00:27:53.128Z,8.96
2023-03-21T00:30:24.036Z,9.02
2023-03-21T00:32:56.605Z,9.07
2023-03-21T00:36:06.678Z,9.10
2023-03-21T00:38:10.390Z,9.08
2023-03-21T00:40:43.682Z,9.05
2023-03-21T00:43:19.461Z,9.10
2023-03-21T00:45:46.915Z,9.12
2023-03-21T00:48:13.659Z,9.05
2023-03-21T00:50:42.069Z,9.08
2023-03-21T00:53:08.918Z,9.15
2023-03-21T00:55:35.632Z,9.14
2023-03-21T00:58:02.803Z,9.18
2023-03-21T01:00:29.942Z,9.23
2023-03-21T01:03:02.714Z,9.21
2023-03-21T01:05:56.508Z,9.20
2023-03-21T01:08:28.172Z,9.14
2023-03-21T01:11:02.581Z,9.12
2023-03-21T01:13:29.048Z,9.14
2023-03-21T01:15:57.453Z,9.19
2023-03-21T01:18:27.216Z,9.21
2023-03-21T01:20:56.192Z,9.23
2023-03-21T01:23:23.140Z,9.27
2023-03-21T01:25:52.375Z,9.28
2023-03-21T01:28:19.024Z,9.31
2023-03-21T01:30:47.755Z,9.30
2023-03-21T01:33:15.493Z,9.30
2023-03-21T01:35:50.497Z,9.33
2023-03-21T01:38:22.234Z,9.33
2023-03-21T01:40:49.918Z,9.31
2023-03-21T01:43:28.544Z,9.23
2023-03-21T01:46:21.351Z,9.24
2023-03-21T01:49:16.693Z,9.25
2023-03-21T01:51:53.646Z,9.33
2023-03-21T01:54:27.456Z,9.33
2023-03-21T01:56:57.648Z,9.27
2023-03-21T01:59:34.939Z,9.25
2023-03-21T02:02:17.925Z,9.31
2023-03-21T02:04:58.525Z,9.35
2023-03-21T02:07:35.689Z,9.37
2023-03-21T02:10:09.746Z,9.36
2023-03-21T02:12:39.042Z,9.34
2023-03-21T02:15:08.922Z,9.36
2023-03-21T02:18:02.616Z,9.41
2023-03-21T02:21:05.042Z,9.43
2023-03-21T02:24:11.194Z,9.50
2023-03-21T02:27:04.059Z,9.46
2023-03-21T02:29:45.539Z,9.46
2023-03-21T02:32:49.758Z,9.47
2023-03-21T02:35:47.189Z,9.46
2023-03-21T02:38:31.176Z,9.47
2023-03-21T02:41:18.018Z,9.44
2023-03-21T02:44:21.356Z,9.37
2023-03-21T02:47:05.235Z,9.33
2023-03-21T02:50:15.793Z,9.28
2023-03-21T02:52:46.003Z,9.32
2023-03-21T02:55:18.845Z,9.29
2023-03-21T02:58:06.974Z,9.26
2023-03-21T03:00:39.193Z,9.26
2023-03-21T03:03:09.931Z,9.25
2023-03-21T03:05:55.803Z,9.26
2023-03-21T03:08:45.305Z,9.30
2023-03-21T03:11:26.187Z,9.31
2023-03-21T03:14:42.055Z,9.33
2023-03-21T03:17:29.851Z,9.37
2023-03-21T03:20:17.020Z,9.35
2023-03-21T03:22:47.723Z,9.35
2023-03-21T03:25:29.830Z,9.34
2023-03-21T03:28:06.048Z,9.35
2023-03-21T03:30:42.231Z,9.39
2023-03-21T03:33:17.005Z,9.37
2023-03-21T03:35:50.316Z,9.35
2023-03-21T03:38:22.746Z,9.42
2023-03-21T03:40:58.599Z,9.45
2023-03-21T03:43:48.708Z,9.41
2023-03-21T03:46:33.852Z,9.38
2023-03-21T03:49:24.296Z,9.42
2023-03-21T03:52:01.405Z,9.50
2023-03-21T03:54:39.803Z,9.53
2023-03-21T03:57:08.049Z,9.48
2023-03-21T03:59:37.197Z,9.42
2023-03-21T04:02:21.942Z,9.38
2023-03-21T04:04:52.876Z,9.39
2023-03-21T04:07:22.185Z,9.43
2023-03-21T04:09:51.836Z,9.45
2023-03-21T04:12:20.678Z,9.50
2023-03-21T04:15:10.660Z,9.56
2023-03-21T04:17:40.026Z,9.60
2023-03-21T04:20:11.981Z,9.61
2023-03-21T04:22:39.705Z,9.63
2023-03-21T04:25:07.466Z,9.65
2023-03-21T04:27:35.040Z,9.66
2023-03-21T04:30:20.223Z,9.65
2023-03-21T04:33:01.254Z,9.68
2023-03-21T04:35:30.350Z,9.70
2023-03-21T04:38:01.089Z,9.62
2023-03-21T04:40:27.692Z,9.65
2023-03-21T04:42:55.235Z,9.64
2023-03-21T04:45:21.675Z,9.68
2023-03-21T04:47:48.239Z,9.69
2023-03-21T04:50:15.820Z,9.73
2023-03-21T04:52:42.831Z,9.73
2023-03-21T04:55:10.095Z,9.77
2023-03-21T04:57:38.668Z,9.72
2023-03-21T05:00:10.634Z,9.74
2023-03-21T05:02:38.634Z,9.78
2023-03-21T05:05:06.927Z,9.79
2023-03-21T05:07:33.580Z,9.79
2023-03-21T05:10:02.330Z,9.79
2023-03-21T05:12:30.085Z,9.83
2023-03-21T05:14:56.487Z,9.87
2023-03-21T05:17:28.381Z,9.89
2023-03-21T05:19:56.478Z,9.90
2023-03-21T05:22:24.174Z,9.92
2023-03-21T05:24:51.446Z,9.88
2023-03-21T05:27:36.043Z,9.89
2023-03-21T05:30:11.282Z,9.88
2023-03-21T05:32:37.818Z,9.85
2023-03-21T05:35:05.660Z,9.90
2023-03-21T05:37:32.598Z,9.90
2023-03-21T05:39:59.057Z,9.90
2023-03-21T05:42:30.550Z,9.89
2023-03-21T05:44:57.322Z,9.94
2023-03-21T05:47:28.560Z,9.94
2023-03-21T05:49:57.259Z,9.96
2023-03-21T05:52:24.395Z,9.92
2023-03-21T05:54:51.456Z,9.93
2023-03-21T05:57:21.447Z,9.94
2023-03-21T05:59:54.461Z,9.98
2023-03-21T06:02:21.131Z,9.99
2023-03-21T06:04:48.689Z,9.96
2023-03-21T06:07:16.243Z,9.96
2023-03-21T06:09:42.742Z,9.98
2023-03-21T06:12:09.171Z,9.95
2023-03-21T06:14:42.541Z,9.91
2023-03-21T06:17:16.632Z,9.97
2023-03-21T06:19:48.496Z,10.00
2023-03-21T06:22:30.037Z,9.95
2023-03-21T06:24:56.534Z,10.00
2023-03-21T06:27:30.149Z,10.00
2023-03-21T06:30:02.444Z,10.02
2023-03-21T06:32:36.813Z,9.95
2023-03-21T06:35:09.560Z,9.85
2023-03-21T06:37:38.077Z,9.85
2023-03-21T06:40:05.867Z,9.88
2023-03-21T06:42:32.565Z,9.88
2023-03-21T06:45:06.520Z,9.91
2023-03-21T06:47:33.138Z,9.88
2023-03-21T06:50:00.557Z,9.86
2023-03-21T06:52:27.482Z,9.90
2023-03-21T06:54:53.952Z,9.93
2023-03-21T06:57:21.939Z,9.95
2023-03-21T06:59:49.409Z,9.95
2023-03-21T07:02:19.432Z,9.93
2023-03-21T07:04:58.628Z,9.99
2023-03-21T07:07:29.737Z,10.01
2023-03-21T07:09:56.360Z,10.01
2023-03-21T07:12:23.699Z,10.00
2023-03-21T07:15:22.318Z,10.06
2023-03-21T07:17:49.083Z,10.05
2023-03-21T07:20:15.755Z,9.99
2023-03-21T07:22:42.756Z,9.98
2023-03-21T07:25:10.487Z,10.01
2023-03-21T07:27:40.894Z,10.05
2023-03-21T07:30:09.007Z,10.06
2023-03-21T07:32:35.470Z,10.03
2023-03-21T07:35:02.150Z,10.08
2023-03-21T07:37:28.510Z,10.12
2023-03-21T07:39:57.545Z,10.14
2023-03-21T07:42:25.243Z,10.17
2023-03-21T07:44:58.521Z,10.23
2023-03-21T07:47:24.909Z,10.24
2023-03-21T07:49:51.467Z,10.26
2023-03-21T07:52:17.843Z,10.30
2023-03-21T07:54:44.417Z,10.30
2023-03-21T07:57:13.561Z,10.29
2023-03-21T07:59:40.241Z,10.33
2023-03-21T08:02:07.232Z,10.34
2023-03-21T08:04:35.943Z,10.35
2023-03-21T08:07:03.003Z,10.35
2023-03-21T08:09:31.084Z,10.35
2023-03-21T08:11:57.606Z,10.27
2023-03-21T08:14:24.179Z,10.22
2023-03-21T08:16:50.662Z,10.18
2023-03-21T08:19:20.656Z,10.21
2023-03-21T08:21:48.280Z,10.19
2023-03-21T08:24:15.459Z,10.16
2023-03-21T08:26:42.714Z,10.12
2023-03-21T08:29:09.219Z,10.12
2023-03-21T08:31:36.171Z,10.19
2023-03-21T08:34:02.671Z,10.19
2023-03-21T08:36:30.341Z,10.20
2023-03-21T08:39:05.113Z,10.29
2023-03-21T08:41:36.985Z,10.37
2023-03-21T08:44:05.726Z,10.38
2023-03-21T08:46:32.623Z,10.38
2023-03-21T08:48:59.095Z,10.41
2023-03-21T08:51:25.964Z,10.37
2023-03-21T08:53:52.431Z,10.33
2023-03-21T08:56:19.017Z,10.38
2023-03-21T08:58:45.459Z,10.37
2023-03-21T09:01:15.474Z,10.39
2023-03-21T09:03:42.696Z,10.34
2023-03-21T09:06:10.698Z,10.31
2023-03-21T09:08:38.311Z,10.28
2023-03-21T09:11:05.845Z,10.25
2023-03-21T09:13:32.199Z,10.25
2023-03-21T09:16:02.185Z,10.26
2023-03-21T09:18:48.790Z,10.35
2023-03-21T09:21:18.137Z,10.40
2023-03-21T09:23:45.031Z,10.43
2023-03-21T09:26:13.257Z,10.41
2023-03-21T09:28:40.478Z,10.47
2023-03-21T09:31:11.347Z,10.54
2023-03-21T09:33:40.522Z,10.58
2023-03-21T09:36:12.797Z,10.58
2023-03-21T09:38:40.639Z,10.54
2023-03-21T09:41:28.528Z,10.58
2023-03-21T09:44:24.539Z,10.61
2023-03-21T09:47:19.902Z,10.66
2023-03-21T09:49:53.009Z,10.71
2023-03-21T09:52:28.882Z,10.83
2023-03-21T09:54:58.875Z,10.88
2023-03-21T09:57:41.713Z,10.86
2023-03-21T10:00:22.655Z,10.90
2023-03-21T10:02:51.730Z,10.84
2023-03-21T10:05:24.409Z,10.85
2023-03-21T10:07:55.717Z,10.81
2023-03-21T10:10:28.367Z,10.82
2023-03-21T10:12:56.259Z,10.84
2023-03-21T10:15:25.824Z,10.85
2023-03-21T10:18:00.562Z,10.83
2023-03-21T10:20:34.865Z,10.73
2023-03-21T10:23:05.390Z,10.74
2023-03-21T10:25:42.583Z,10.74
2023-03-21T10:28:16.541Z,10.72
2023-03-21T10:30:51.139Z,10.77
2023-03-21T10:33:24.619Z,10.83
2023-03-21T10:36:05.217Z,10.83
2023-03-21T10:38:31.739Z,10.78
2023-03-21T10:40:58.321Z,10.75
2023-03-21T10:43:27.550Z,10.76
2023-03-21T10:45:55.631Z,10.81
2023-03-21T10:48:23.700Z,10.84
2023-03-21T10:50:54.050Z,10.89
2023-03-21T10:53:32.791Z,10.90
2023-03-21T10:56:02.153Z,10.92
2023-03-21T10:58:38.940Z,10.88
2023-03-21T11:01:10.022Z,10.85
2023-03-21T11:03:43.301Z,10.92
2023-03-21T11:06:17.390Z,10.95
2023-03-21T11:08:47.911Z,10.95
2023-03-21T11:11:26.215Z,10.92
2023-03-21T11:14:01.744Z,10.89
2023-03-21T11:16:38.994Z,10.83
2023-03-21T11:19:15.229Z,10.73
2023-03-21T11:21:42.213Z,10.73
2023-03-21T11:24:16.955Z,10.81
2023-03-21T11:26:48.009Z,10.79
2023-03-21T11:29:18.455Z,10.80
2023-03-21T11:31:46.331Z,10.82
2023-03-21T11:34:28.071Z,10.84
2023-03-21T11:36:59.817Z,10.91
2023-03-21T11:39:41.105Z,10.96
2023-03-21T11:42:26.962Z,11.01
2023-03-21T11:45:23.332Z,11.11
2023-03-21T11:47:51.615Z,11.17
2023-03-21T11:50:26.934Z,11.16
2023-03-21T11:53:12.565Z,11.13
2023-03-21T11:56:06.808Z,11.09
2023-03-21T11:58:37.598Z,11.05
2023-03-21T12:01:19.431Z,11.00
2023-03-21T12:04:12.492Z,10.95
2023-03-21T12:06:52.166Z,10.97
2023-03-21T12:09:31.168Z,11.00
2023-03-21T12:12:07.441Z,11.04
2023-03-21T12:14:46.771Z,11.12
2023-03-21T12:17:24.454Z,11.24
2023-03-21T12:20:18.125Z,11.25
2023-03-21T12:23:02.266Z,11.35
2023-03-21T12:25:42.269Z,11.28
2023-03-21T12:28:31.731Z,11.28
2023-03-21T12:31:27.163Z,11.25
2023-03-21T12:34:29.530Z,11.30
2023-03-21T12:37:04.862Z,11.43
2023-03-21T12:39:36.686Z,11.47
2023-03-21T12:42:23.998Z,11.44
2023-03-21T12:45:18.988Z,11.33
2023-03-21T12:47:51.325Z,11.29
2023-03-21T12:50:29.055Z,11.27
2023-03-21T12:53:05.338Z,11.28
2023-03-21T12:55:34.791Z,11.26
2023-03-21T12:58:06.187Z,11.22
2023-03-21T13:00:39.661Z,11.15
2023-03-21T13:03:19.554Z,11.15
2023-03-21T13:05:56.656Z,11.16
2023-03-21T13:08:31.524Z,11.19
2023-03-21T13:11:00.261Z,11.18
2023-03-21T13:13:44.592Z,11.18
2023-03-21T13:16:32.733Z,11.20
2023-03-21T13:19:22.760Z,11.14
2023-03-21T13:22:22.480Z,11.04
2023-03-21T13:24:55.152Z,11.07
2023-03-21T13:27:24.594Z,11.09
2023-03-21T13:29:54.648Z,11.12
2023-03-21T13:32:38.436Z,11.14
2023-03-21T13:35:30.535Z,11.14
2023-03-21T13:38:01.736Z,11.12
2023-03-21T13:40:43.472Z,11.17
2023-03-21T13:43:43.758Z,11.18
2023-03-21T13:46:13.429Z,11.15
2023-03-21T13:48:59.434Z,11.09
2023-03-21T13:51:36.367Z,11.09
2023-03-21T13:54:29.825Z,11.13
2023-03-21T13:57:01.039Z,11.12
2023-03-21T13:59:40.759Z,11.07
2023-03-21T14:02:13.329Z,11.03
2023-03-21T14:04:54.160Z,11.04
2023-03-21T14:07:32.749Z,11.05
2023-03-21T14:10:25.760Z,10.98
2023-03-21T14:12:53.066Z,10.94
2023-03-21T14:15:23.346Z,10.92
2023-03-21T14:17:54.013Z,10.91
2023-03-21T14:20:32.453Z,10.88
2023-03-21T14:22:59.374Z,10.85
2023-03-21T14:25:44.407Z,10.77
2023-03-21T14:28:17.489Z,10.74
2023-03-21T14:30:45.371Z,10.73
2023-03-21T14:33:31.253Z,10.77
2023-03-21T14:36:06.355Z,10.77
2023-03-21T14:38:39.939Z,10.82
2023-03-21T14:41:21.371Z,10.81
2023-03-21T14:44:26.040Z,10.82
2023-03-21T14:47:00.844Z,10.81
2023-03-21T14:49:30.143Z,10.76
2023-03-21T14:52:11.605Z,10.77
2023-03-21T14:54:44.263Z,10.74
2023-03-21T14:57:15.256Z,10.73
2023-03-21T14:59:42.597Z,10.66
2023-03-21T15:02:18.364Z,10.61
2023-03-21T15:04:49.456Z,10.67
2023-03-21T15:07:28.940Z,10.67
2023-03-21T15:09:57.492Z,10.75
2023-03-21T15:12:23.952Z,10.78
2023-03-21T15:14:50.858Z,10.82
2023-03-21T15:17:17.564Z,10.87
2023-03-21T15:19:44.100Z,10.88
2023-03-21T15:22:30.293Z,10.87
2023-03-21T15:25:02.085Z,10.88
2023-03-21T15:27:32.323Z,10.88
2023-03-21T15:29:58.832Z,10.85
2023-03-21T15:32:28.080Z,10.80
2023-03-21T15:34:56.480Z,10.78
2023-03-21T15:37:26.801Z,10.78
2023-03-21T15:39:54.519Z,10.77
2023-03-21T15:42:38.636Z,10.68
2023-03-21T15:45:25.020Z,10.64
2023-03-21T15:48:02.634Z,10.57
2023-03-21T15:50:36.120Z,10.57
2023-03-21T15:53:07.000Z,10.53
2023-03-21T15:55:43.310Z,10.55
2023-03-21T15:58:16.941Z,10.59
2023-03-21T16:00:51.677Z,10.62
2023-03-21T16:03:30.405Z,10.58
2023-03-21T16:06:03.383Z,10.56
2023-03-21T16:08:35.664Z,10.55
2023-03-21T16:11:25.563Z,10.48
2023-03-21T16:13:53.593Z,10.44
2023-03-21T16:16:28.571Z,10.45
2023-03-21T16:18:58.013Z,10.41
2023-03-21T16:21:26.967Z,10.43
2023-03-21T16:23:53.447Z,10.46
2023-03-21T16:26:32.049Z,10.44
2023-03-21T16:28:59.357Z,10.40
2023-03-21T16:31:28.466Z,10.41
2023-03-21T16:33:54.860Z,10.44
2023-03-21T16:36:25.509Z,10.47
2023-03-21T16:38:53.323Z,10.48
2023-03-21T16:41:21.120Z,10.49
2023-03-21T16:43:47.535Z,10.51
2023-03-21T16:46:18.623Z,10.56
2023-03-21T16:48:48.818Z,10.52
2023-03-21T16:51:17.956Z,10.54
2023-03-21T16:53:45.289Z,10.58
2023-03-21T16:56:18.724Z,10.62
2023-03-21T16:58:45.309Z,10.69
2023-03-21T17:01:19.126Z,10.72
2023-03-21T17:03:47.052Z,10.73
2023-03-21T17:06:19.484Z,10.74
2023-03-21T17:08:46.012Z,10.69
2023-03-21T17:11:16.362Z,10.70
2023-03-21T17:13:43.955Z,10.67
2023-03-21T17:16:13.025Z,10.66
2023-03-21T17:18:39.498Z,10.63
2023-03-21T17:21:18.031Z,10.64
2023-03-21T17:23:44.539Z,10.66
2023-03-21T17:26:13.847Z,10.66
2023-03-21T17:28:41.465Z,10.64
2023-03-21T17:31:16.706Z,10.62
2023-03-21T17:33:43.718Z,10.63
2023-03-21T17:36:23.129Z,10.63
2023-03-21T17:38:49.803Z,10.62
2023-03-21T17:41:19.020Z,10.61
2023-03-21T17:43:46.103Z,10.61
2023-03-21T17:46:15.073Z,10.66
2023-03-21T17:48:42.860Z,10.65
2023-03-21T17:51:14.726Z,10.61
2023-03-21T17:53:49.162Z,10.66
2023-03-21T17:56:27.827Z,10.68
2023-03-21T17:58:54.408Z,10.72
2023-03-21T18:01:21.295Z,10.75
2023-03-21T18:03:47.915Z,10.73
2023-03-21T18:06:20.737Z,10.72
2023-03-21T18:08:48.197Z,10.69
2023-03-21T18:11:15.992Z,10.66
2023-03-21T18:13:43.363Z,10.68
2023-03-21T18:16:18.555Z,10.69
2023-03-21T18:18:46.466Z,10.67
2023-03-21T18:21:18.912Z,10.68
2023-03-21T18:23:46.947Z,10.67
2023-03-21T18:26:16.700Z,10.69
2023-03-21T18:28:44.086Z,10.71
2023-03-21T18:31:19.391Z,10.76
2023-03-21T18:33:48.163Z,10.79
2023-03-21T18:36:24.485Z,10.79
2023-03-21T18:38:52.093Z,10.78
2023-03-21T18:41:19.614Z,10.73
2023-03-21T18:44:09.103Z,10.69
2023-03-21T18:46:32.854Z,10.72
2023-03-21T18:49:19.808Z,10.71
2023-03-21T18:51:47.027Z,10.69
2023-03-21T18:54:13.580Z,10.70
2023-03-21T18:59:27.407Z,10.76
2023-03-21T19:01:54.177Z,10.74
2023-03-21T19:04:25.609Z,10.74
2023-03-21T19:06:57.574Z,10.73
2023-03-21T19:09:29.405Z,10.77
2023-03-21T19:11:58.141Z,10.78
2023-03-21T19:14:24.704Z,10.81
2023-03-21T19:17:37.802Z,10.80
2023-03-21T19:19:41.158Z,10.75
2023-03-21T19:22:07.590Z,10.74
2023-03-21T19:24:34.173Z,10.72
2023-03-21T19:27:00.635Z,10.73
2023-03-21T19:29:27.432Z,10.72
2023-03-21T19:31:54.050Z,10.73
2023-03-21T19:34:20.802Z,10.76
2023-03-21T19:36:51.443Z,10.75
2023-03-21T19:39:22.000Z,10.75
2023-03-21T19:41:48.724Z,10.74
2023-03-21T19:44:15.327Z,10.76
2023-03-21T19:46:41.777Z,10.79
2023-03-21T19:49:08.234Z,10.81
2023-03-21T19:51:35.486Z,10.83
2023-03-21T19:54:05.063Z,10.83
2023-03-21T19:56:31.932Z,10.85
2023-03-21T19:58:59.054Z,10.81
2023-03-21T20:01:26.110Z,10.80
2023-03-21T20:03:52.742Z,10.79
2023-03-21T20:06:20.049Z,10.83
2023-03-21T20:11:33.336Z,10.81
2023-03-21T20:14:01.816Z,10.87
2023-03-21T20:16:34.207Z,10.85
2023-03-21T20:19:01.961Z,10.86
2023-03-21T20:21:33.785Z,10.86
2023-03-21T20:24:06.951Z,10.89
2023-03-21T20:26:34.119Z,10.90
2023-03-21T20:29:37.298Z,10.88
2023-03-21T20:31:47.480Z,10.85
2023-03-21T20:34:13.941Z,10.83
2023-03-21T20:36:46.043Z,10.81
2023-03-21T20:39:12.426Z,10.76
2023-03-21T20:41:39.461Z,10.76
2023-03-21T20:44:41.711Z,10.75
2023-03-21T20:46:53.140Z,10.73
2023-03-21T20:49:22.649Z,10.74
2023-03-21T20:54:36.678Z,10.74
2023-03-21T20:57:04.689Z,10.76
2023-03-21T20:59:31.392Z,10.78
2023-03-21T21:01:57.929Z,10.79
2023-03-21T21:04:44.342Z,10.80
2023-03-21T21:07:15.692Z,10.84
2023-03-21T21:09:45.236Z,10.85
2023-03-21T21:12:12.799Z,10.85
2023-03-21T21:14:39.702Z,10.86
2023-03-21T21:17:23.759Z,10.85
2023-03-21T21:19:53.277Z,10.84
2023-03-21T21:22:20.158Z,10.83
2023-03-21T21:24:46.507Z,10.86
2023-03-21T21:27:13.737Z,10.87
2023-03-21T21:29:43.037Z,10.89
2023-03-21T21:32:09.583Z,10.90
2023-03-21T21:34:36.282Z,10.89
2023-03-21T21:37:02.992Z,10.87
2023-03-21T21:39:31.407Z,10.87
2023-03-21T21:41:57.808Z,10.87
2023-03-21T21:44:24.354Z,10.88
2023-03-21T21:46:51.212Z,10.92
2023-03-21T21:49:17.744Z,10.91
2023-03-21T21:51:47.753Z,10.92
2023-03-21T21:54:18.028Z,10.92
2023-03-21T21:56:48.142Z,10.92
2023-03-21T21:59:18.507Z,10.93
2023-03-21T22:01:46.458Z,10.93
2023-03-21T22:04:14.239Z,11.00
2023-03-21T22:06:42.135Z,11.00
2023-03-21T22:09:08.831Z,11.02
2023-03-21T22:11:35.257Z,11.04
2023-03-21T22:14:15.354Z,11.02
2023-03-21T22:16:55.219Z,11.02
2023-03-21T22:19:43.511Z,10.98
2023-03-21T22:22:17.458Z,10.94
2023-03-21T22:24:43.806Z,10.94
2023-03-21T22:27:10.259Z,10.97
2023-03-21T22:29:36.611Z,11.00
2023-03-21T22:32:03.078Z,10.96
2023-03-21T22:34:29.497Z,10.93
2023-03-21T22:36:56.960Z,10.89
2023-03-21T22:39:26.233Z,10.88
2023-03-21T22:41:54.163Z,10.91
2023-03-21T22:44:20.774Z,10.92
2023-03-21T22:46:47.249Z,10.92
2023-03-21T22:49:13.651Z,10.93
2023-03-21T22:51:40.353Z,10.92
2023-03-21T22:54:06.936Z,10.94
2023-03-21T22:56:33.285Z,10.92
2023-03-21T22:59:02.857Z,10.88
2023-03-21T23:01:29.268Z,10.87
2023-03-21T23:03:55.649Z,10.83
2023-03-21T23:06:22.257Z,10.80
2023-03-21T23:08:48.626Z,10.74
2023-03-21T23:11:15.036Z,10.69
2023-03-21T23:13:41.434Z,10.64
2023-03-21T23:16:08.396Z,10.59
2023-03-21T23:18:36.917Z,10.55
2023-03-21T23:21:06.179Z,10.53
2023-03-21T23:23:36.663Z,10.51
2023-03-21T23:26:03.044Z,10.46
2023-03-21T23:28:29.408Z,10.44
2023-03-21T23:30:55.866Z,10.44
2023-03-21T23:33:22.269Z,10.40
2023-03-21T23:35:49.129Z,10.36
2023-03-21T23:38:15.536Z,10.36
2023-03-21T23:40:42.214Z,10.34
2023-03-21T23:43:08.619Z,10.34
2023-03-21T23:45:35.299Z,10.32
2023-03-21T23:48:01.694Z,10.24
2023-03-21T23:50:28.082Z,10.22
2023-03-21T23:52:54.456Z,10.25
2023-03-21T23:55:20.823Z,10.24
2023-03-21T23:57:47.998Z,10.24
